Time;durP1;ratioP1;P1;durP2;ratioP2;P2;SDS_P1;SDS_P2;PMS_P1;PMS_P2;Temp;Humidity;BMP_temperature;BMP_pressure;BME280_temperature;BME280_humidity;BME280_pressure;Samples;Min_cycle;Max_cycle;Signal;HPM_P1;HPM_P2
2023/09/22 00:00:20;;;;;;;8.00;4.70;;;;;;;15.22;84.89;95763.10;111550;1229;23299;-75
2023/09/22 00:03:13;;;;;;;6.30;4.50;;;;;;;15.20;84.99;95754.88;111544;1244;22753;-74
2023/09/22 00:05:41;;;;;;;6.70;5.10;;;;;;;15.19;85.29;95753.68;111572;1244;22524;-75
2023/09/22 00:08:10;;;;;;;9.10;5.50;;;;;;;15.15;85.44;95760.49;111547;1244;22492;-75
2023/09/22 00:10:38;;;;;;;8.70;5.60;;;;;;;15.16;85.89;95748.39;111553;1244;24166;-75
2023/09/22 00:13:06;;;;;;;9.30;5.00;;;;;;;15.27;86.16;95743.21;111518;1244;23010;-75
2023/09/22 00:15:37;;;;;;;10.30;5.20;;;;;;;15.37;86.26;95742.42;111538;1240;22542;-75
2023/09/22 00:18:06;;;;;;;7.50;4.90;;;;;;;15.38;85.99;95743.77;111531;1244;23141;-75
2023/09/22 00:20:35;;;;;;;6.30;4.90;;;;;;;15.40;85.98;95736.95;111553;1244;22551;-75
2023/09/22 00:23:03;;;;;;;9.60;5.00;;;;;;;15.32;85.77;95737.66;111510;1244;23826;-75
2023/09/22 00:25:32;;;;;;;8.40;4.90;;;;;;;15.35;86.08;95731.95;111577;1244;22678;-75
2023/09/22 00:28:00;;;;;;;10.40;5.40;;;;;;;15.30;85.73;95730.64;111541;1244;22551;-75
2023/09/22 00:30:28;;;;;;;8.00;5.00;;;;;;;15.25;86.07;95727.37;111531;1244;24382;-75
2023/09/22 00:32:57;;;;;;;8.40;5.10;;;;;;;15.21;85.86;95727.35;111606;1244;25228;-75
2023/09/22 00:35:26;;;;;;;8.50;5.80;;;;;;;15.16;86.43;95728.20;111553;1244;22503;-75
2023/09/22 00:37:54;;;;;;;6.80;4.90;;;;;;;15.26;86.97;95726.08;111562;1244;22720;-75
2023/09/22 00:40:22;;;;;;;8.60;5.30;;;;;;;15.36;86.65;95715.14;111563;1244;22540;-75
2023/09/22 00:43:11;;;;;;;7.10;4.70;;;;;;;15.41;86.64;95709.20;111591;1244;22601;-75
2023/09/22 00:45:43;;;;;;;7.90;5.00;;;;;;;15.38;86.39;95717.59;111615;1244;25190;-75
2023/09/22 00:48:22;;;;;;;8.50;6.10;;;;;;;15.33;86.49;95718.62;111507;1244;22494;-75
2023/09/22 00:50:50;;;;;;;7.90;5.00;;;;;;;15.30;86.46;95718.13;111551;1244;22500;-75
2023/09/22 00:53:18;;;;;;;9.90;5.40;;;;;;;15.20;86.56;95717.48;111544;1244;22505;-75
2023/09/22 00:55:53;;;;;;;6.10;4.90;;;;;;;15.11;86.94;95716.51;111552;1244;24242;-75
2023/09/22 00:58:21;;;;;;;12.40;6.10;;;;;;;15.16;87.21;95709.11;111644;1244;22499;-75
2023/09/22 01:00:52;;;;;;;12.80;6.80;;;;;;;15.23;87.30;95710.02;111588;1244;25411;-75
2023/09/22 01:03:20;;;;;;;8.40;5.60;;;;;;;15.27;87.46;95716.58;111539;1244;22600;-75
2023/09/22 01:05:50;;;;;;;10.10;6.30;;;;;;;15.23;87.11;95718.52;111556;1244;25973;-75
2023/09/22 01:08:18;;;;;;;8.70;5.60;;;;;;;15.03;87.04;95719.95;111567;1239;22502;-75
2023/09/22 01:10:49;;;;;;;10.60;6.70;;;;;;;14.99;87.62;95715.83;111571;1244;22467;-75
2023/09/22 01:13:17;;;;;;;10.60;5.80;;;;;;;15.01;87.76;95717.44;111532;1244;25411;-75
2023/09/22 01:15:48;;;;;;;7.20;5.80;;;;;;;15.03;87.96;95724.30;111559;1244;22743;-75
2023/09/22 01:18:17;;;;;;;8.20;7.10;;;;;;;15.02;87.82;95721.20;111564;1244;22555;-75
2023/09/22 01:20:46;;;;;;;13.70;8.30;;;;;;;14.99;88.41;95719.79;111586;1244;22499;-75
2023/09/22 01:23:15;;;;;;;12.50;8.40;;;;;;;15.04;88.96;95722.71;111550;1244;23975;-75
2023/09/22 01:25:45;;;;;;;12.50;7.80;;;;;;;15.11;89.17;95722.76;111560;1244;22496;-75
2023/09/22 01:28:15;;;;;;;10.00;6.80;;;;;;;15.17;89.00;95718.08;111554;1244;22494;-76
2023/09/22 01:30:44;;;;;;;13.30;7.30;;;;;;;15.10;88.33;95718.38;111552;1244;22610;-75
2023/09/22 01:33:12;;;;;;;8.00;6.40;;;;;;;14.91;88.13;95728.30;111556;1244;22532;-75
2023/09/22 01:35:40;;;;;;;8.80;7.30;;;;;;;14.91;88.76;95723.78;111570;1244;23822;-75
2023/09/22 01:38:14;;;;;;;13.10;8.70;;;;;;;14.91;88.85;95711.35;111548;1244;26416;-75
2023/09/22 01:40:46;;;;;;;12.40;8.70;;;;;;;14.82;89.35;95711.73;111579;1244;22499;-75
2023/09/22 01:43:17;;;;;;;10.40;8.00;;;;;;;14.84;89.75;95712.19;111558;1244;22917;-75
2023/09/22 01:45:47;;;;;;;11.70;7.50;;;;;;;14.84;89.74;95708.98;111559;1238;22552;-75
2023/09/22 01:48:16;;;;;;;10.70;7.30;;;;;;;14.77;89.39;95706.31;111571;1244;22565;-75
2023/09/22 01:50:45;;;;;;;13.90;8.90;;;;;;;14.70;89.52;95700.94;111553;1244;23765;-75
2023/09/22 01:53:16;;;;;;;10.80;8.40;;;;;;;14.72;90.25;95697.04;111491;1244;22554;-75
2023/09/22 01:55:46;;;;;;;10.90;8.30;;;;;;;14.76;90.45;95698.69;111528;1244;22573;-75
2023/09/22 01:58:16;;;;;;;12.90;9.70;;;;;;;14.81;91.00;95693.80;111528;1244;26408;-75
2023/09/22 02:00:45;;;;;;;11.50;8.70;;;;;;;14.95;91.33;95695.65;111536;1244;25252;-75
2023/09/22 02:03:16;;;;;;;9.60;8.30;;;;;;;15.03;90.87;95697.89;111551;1244;22524;-75
2023/09/22 02:05:44;;;;;;;10.00;7.80;;;;;;;15.08;90.69;95697.64;111774;1244;22498;-75
2023/09/22 02:08:13;;;;;;;12.20;8.20;;;;;;;15.02;90.14;95692.84;111556;1240;22525;-75
2023/09/22 02:10:48;;;;;;;10.60;8.90;;;;;;;15.00;90.53;95694.22;111557;1244;24899;-75
2023/09/22 02:13:16;;;;;;;9.60;8.10;;;;;;;14.94;90.26;95691.10;111571;1244;24137;-75
2023/09/22 02:15:44;;;;;;;11.70;8.40;;;;;;;14.76;90.17;95689.41;111556;1244;22520;-75
2023/09/22 02:18:13;;;;;;;12.20;8.80;;;;;;;14.69;90.67;95691.01;111541;1244;24190;-75
2023/09/22 02:20:42;;;;;;;;;;;;;;;14.71;91.08;95684.52;111556;1244;23375;-75
2023/09/22 02:23:10;;;;;;;10.40;8.50;;;;;;;14.74;91.24;95683.61;111538;1244;23726;-74
2023/09/22 02:25:39;;;;;;;11.20;8.80;;;;;;;14.72;91.06;95680.19;111536;1244;22483;-75
2023/09/22 02:28:07;;;;;;;13.40;9.00;;;;;;;14.69;91.34;95682.76;111514;1244;25384;-75
2023/09/22 02:30:37;;;;;;;9.90;8.50;;;;;;;14.70;91.62;95681.11;111531;1244;23335;-75
2023/09/22 02:33:07;;;;;;;11.90;9.20;;;;;;;14.71;91.83;95678.39;111529;1244;24951;-75
2023/09/22 02:35:36;;;;;;;10.70;8.80;;;;;;;14.71;91.86;95683.20;111616;1244;24016;-75
2023/09/22 02:38:04;;;;;;;11.10;7.90;;;;;;;14.65;91.49;95677.98;111550;1244;22483;-75
2023/09/22 02:40:33;;;;;;;11.00;8.70;;;;;;;14.52;91.37;95676.11;111524;1244;25389;-75
2023/09/22 02:43:03;;;;;;;13.20;8.70;;;;;;;14.45;91.70;95671.04;111538;1244;22513;-75
2023/09/22 02:45:31;;;;;;;13.10;9.10;;;;;;;14.38;92.02;95667.59;111515;1244;22495;-75
2023/09/22 02:48:00;;;;;;;13.10;9.30;;;;;;;14.40;92.35;95671.38;111508;1244;25402;-75
2023/09/22 02:50:30;;;;;;;10.50;8.40;;;;;;;14.42;92.73;95668.95;111520;1244;22499;-75
2023/09/22 02:53:00;;;;;;;11.20;9.00;;;;;;;14.40;92.62;95672.46;111502;1244;25405;-75
2023/09/22 02:55:29;;;;;;;9.60;8.50;;;;;;;14.43;93.04;95669.81;111523;1244;24032;-76
2023/09/22 02:58:00;;;;;;;13.50;8.70;;;;;;;14.45;92.98;95663.36;111512;1244;24192;-75
2023/09/22 03:00:28;;;;;;;13.90;9.60;;;;;;;14.43;92.97;95660.99;111564;1244;24901;-75
2023/09/22 03:02:57;;;;;;;11.30;8.80;;;;;;;14.45;93.54;95664.66;111508;1244;25391;-75
2023/09/22 03:05:25;;;;;;;13.10;9.10;;;;;;;14.50;93.73;95662.04;111653;1244;23723;-75
2023/09/22 03:07:55;;;;;;;14.10;10.10;;;;;;;14.57;94.26;95659.84;111535;1244;26416;-75
2023/09/22 03:10:25;;;;;;;11.10;9.40;;;;;;;14.69;94.55;95656.77;111542;1244;22498;-75
2023/09/22 03:12:55;;;;;;;10.90;8.70;;;;;;;14.74;94.50;95660.98;111518;1244;22555;-75
2023/09/22 03:15:24;;;;;;;12.20;10.50;;;;;;;14.69;93.77;95663.25;111533;1235;22502;-75
2023/09/22 03:17:52;;;;;;;12.90;10.70;;;;;;;14.53;93.68;95664.36;111547;1244;25251;-75
2023/09/22 03:20:21;;;;;;;14.20;10.70;;;;;;;14.56;94.90;95653.27;111534;1244;22539;-75
2023/09/22 03:22:49;;;;;;;15.90;10.50;;;;;;;14.76;95.84;95650.07;111491;1244;22515;-75
2023/09/22 03:25:19;;;;;;;12.30;9.60;;;;;;;14.89;95.64;95650.52;111501;1244;22893;-75
2023/09/22 03:27:48;;;;;;;13.30;9.70;;;;;;;14.89;94.91;95647.15;111536;1244;22812;-75
2023/09/22 03:30:17;;;;;;;13.90;9.50;;;;;;;14.73;93.86;95649.75;111500;1244;22507;-75
2023/09/22 03:32:50;;;;;;;11.40;10.20;;;;;;;14.55;94.38;95650.39;111504;1244;22459;-75
2023/09/22 03:35:22;;;;;;;12.20;10.30;;;;;;;14.55;95.05;95651.55;111512;1244;22958;-75
2023/09/22 03:37:55;;;;;;;13.80;10.40;;;;;;;14.60;95.71;95653.60;111543;1244;22482;-75
2023/09/22 03:40:31;;;;;;;12.50;10.10;;;;;;;14.64;95.72;95654.45;111528;1244;23738;-75
2023/09/22 03:43:01;;;;;;;10.30;8.50;;;;;;;14.64;95.33;95662.77;111552;1244;25222;-75
2023/09/22 03:45:33;;;;;;;13.00;9.70;;;;;;;14.60;95.21;95660.77;111524;1244;24821;-75
2023/09/22 03:48:03;;;;;;;11.40;9.60;;;;;;;14.59;95.55;95663.09;111557;1244;22499;-75
2023/09/22 03:50:32;;;;;;;11.50;9.90;;;;;;;14.59;95.52;95662.43;111532;1244;27702;-75
2023/09/22 03:53:01;;;;;;;12.50;10.00;;;;;;;14.57;95.80;95661.81;111576;1244;23109;-75
2023/09/22 03:55:32;;;;;;;12.10;10.40;;;;;;;14.67;96.61;95656.52;111516;1244;22562;-75
2023/09/22 03:58:03;;;;;;;11.90;9.30;;;;;;;14.82;96.70;95659.35;111536;1244;23842;-75
2023/09/22 04:00:32;;;;;;;15.00;9.60;;;;;;;14.82;96.10;95658.91;111546;1244;25055;-75
2023/09/22 04:03:01;;;;;;;11.70;9.70;;;;;;;14.70;95.42;95658.57;111507;1244;25136;-75
2023/09/22 04:05:29;;;;;;;15.30;11.40;;;;;;;14.59;95.86;95659.23;111516;1244;25383;-75
2023/09/22 04:07:58;;;;;;;16.10;11.40;;;;;;;14.64;96.89;95657.40;111558;1244;23046;-74
2023/09/22 04:10:26;;;;;;;15.70;11.40;;;;;;;14.88;97.74;95654.52;111521;1244;25410;-75
2023/09/22 04:12:55;;;;;;;14.50;10.70;;;;;;;15.08;97.53;95658.36;111540;1244;22580;-75
2023/09/22 04:15:26;;;;;;;15.60;10.00;;;;;;;15.17;97.08;95659.40;111545;1244;22502;-75
2023/09/22 04:17:54;;;;;;;15.60;10.60;;;;;;;15.17;96.42;95666.19;111523;1231;22511;-75
2023/09/22 04:20:29;;;;;;;14.20;10.40;;;;;;;15.04;95.96;95660.64;111543;1244;22617;-74
2023/09/22 04:22:58;;;;;;;13.70;10.40;;;;;;;14.97;96.35;95660.34;111529;1244;27086;-75
2023/09/22 04:25:36;;;;;;;11.90;9.30;;;;;;;14.98;96.56;95660.98;111595;1244;22505;-75
2023/09/22 04:28:17;;;;;;;12.90;10.90;;;;;;;15.01;96.54;95667.64;111519;1244;22603;-75
2023/09/22 04:30:46;;;;;;;15.90;11.20;;;;;;;15.08;96.95;95665.13;111507;1244;22510;-75
2023/09/22 04:33:15;;;;;;;14.10;10.50;;;;;;;15.10;96.68;95659.11;111459;1244;22485;-74
2023/09/22 04:35:44;;;;;;;15.10;11.30;;;;;;;15.10;96.77;95659.17;111473;1244;22524;-75
2023/09/22 04:38:14;;;;;;;13.50;11.20;;;;;;;15.15;97.05;95660.94;111541;1244;22620;-75
2023/09/22 04:40:47;;;;;;;12.70;10.30;;;;;;;15.17;96.92;95661.62;111573;1244;22506;-75
2023/09/22 04:43:16;;;;;;;14.40;10.30;;;;;;;15.15;96.63;95662.70;111529;1244;24192;-74
2023/09/22 04:45:45;;;;;;;;;;;;;;;15.11;96.36;95663.78;111639;1244;26520;-75
2023/09/22 04:48:19;;;;;;;13.10;10.10;;;;;;;15.19;96.91;95668.85;111464;1244;25393;-74
2023/09/22 04:50:54;;;;;;;13.60;10.30;;;;;;;15.35;96.89;95672.82;111654;1244;23819;-75
2023/09/22 04:53:24;;;;;;;13.50;10.10;;;;;;;15.56;97.03;95670.86;111536;1244;22491;-74
2023/09/22 04:56:00;;;;;;;16.20;10.40;;;;;;;15.74;96.82;95674.34;111480;1244;22518;-75
2023/09/22 04:58:29;;;;;;;13.30;9.20;;;;;;;16.00;97.02;95676.45;111559;1244;25020;-74
2023/09/22 05:00:58;;;;;;;11.40;9.20;;;;;;;16.24;96.41;95678.73;111263;1244;25282;-75
2023/09/22 05:03:28;;;;;;;14.60;9.70;;;;;;;16.37;95.54;95683.91;113556;1240;22501;-75
2023/09/22 05:06:06;;;;;;;12.40;8.40;;;;;;;16.39;94.91;95682.30;113154;1244;22989;-75
2023/09/22 05:08:34;;;;;;;14.90;8.90;;;;;;;16.38;94.52;95674.79;111406;1244;23850;-75
2023/09/22 05:11:05;;;;;;;11.20;8.60;;;;;;;16.55;94.81;95679.77;111416;1244;22677;-75
2023/09/22 05:13:35;;;;;;;10.50;7.40;;;;;;;16.76;94.40;95684.77;111552;1244;22498;-74
2023/09/22 05:16:09;;;;;;;9.40;7.00;;;;;;;16.93;93.85;95682.34;111677;1244;22503;-74
2023/09/22 05:18:38;;;;;;;11.10;7.60;;;;;;;17.04;93.21;95677.72;111657;1244;22502;-75
2023/09/22 05:21:09;;;;;;;11.70;8.10;;;;;;;17.09;92.75;95678.88;111644;1244;24140;-75
2023/09/22 05:23:38;;;;;;;13.60;8.20;;;;;;;17.27;93.27;95681.70;111650;1244;24271;-75
2023/09/22 05:26:06;;;;;;;;;;;;;;;17.66;93.50;95682.77;111553;1244;25393;-75
2023/09/22 05:28:36;;;;;;;10.00;8.20;;;;;;;18.06;93.04;95687.79;111084;1244;25390;-75
2023/09/22 05:31:05;;;;;;;10.90;8.20;;;;;;;18.32;92.44;95687.86;111355;1244;22559;-75
2023/09/22 05:33:33;;;;;;;;;;;;;;;18.58;91.60;95685.48;111414;1244;22545;-75
2023/09/22 05:36:07;;;;;;;11.60;7.70;;;;;;;18.73;90.82;95684.07;111530;1244;23244;-75
2023/09/22 05:38:36;;;;;;;9.10;7.00;;;;;;;18.89;90.17;95684.24;111564;1244;22502;-74
2023/09/22 05:41:04;;;;;;;11.50;7.60;;;;;;;19.08;89.75;95679.61;111553;1244;22502;-74
2023/09/22 05:43:33;;;;;;;8.60;6.90;;;;;;;19.43;90.08;95681.48;111512;1244;46287;-74
2023/09/22 05:46:01;;;;;;;9.50;6.80;;;;;;;19.74;88.78;95681.80;111513;1244;25422;-74
2023/09/22 05:48:30;;;;;;;12.30;7.10;;;;;;;20.04;88.12;95675.65;111533;1244;22746;-75
2023/09/22 05:50:59;;;;;;;12.50;7.00;;;;;;;20.33;87.04;95671.85;111494;1244;22501;-74
2023/09/22 05:53:26;;;;;;;;;;;;;;;20.56;86.09;95673.73;111605;1244;22477;-74
2023/09/22 05:56:06;;;;;;;10.20;6.70;;;;;;;20.73;84.81;95674.73;111528;1244;22894;-74
2023/09/22 05:58:39;;;;;;;18.40;8.40;;;;;;;20.89;84.32;95673.15;111489;1244;25533;-74
2023/09/22 06:01:07;;;;;;;;;;;;;;;21.29;85.11;95670.66;111520;1244;24196;-74
2023/09/22 06:03:37;;;;;;;12.90;7.30;;;;;;;21.67;84.12;95669.58;111616;1244;22527;-74
2023/09/22 06:06:10;;;;;;;10.60;6.80;;;;;;;21.96;83.20;95673.83;111647;1244;22488;-74
2023/09/22 06:08:39;;;;;;;16.00;6.70;;;;;;;22.33;83.14;95679.98;111523;1244;22505;-74
2023/09/22 06:11:09;;;;;;;12.80;6.70;;;;;;;22.68;81.85;95678.08;111535;1244;25403;-74
2023/09/22 06:13:38;;;;;;;11.80;7.00;;;;;;;22.91;81.47;95674.66;111512;1239;23846;-74
2023/09/22 06:16:06;;;;;;;12.80;6.50;;;;;;;23.32;81.41;95682.52;111490;1244;22585;-74
2023/09/22 06:18:35;;;;;;;12.30;6.90;;;;;;;23.66;80.05;95682.04;111517;1244;22528;-74
2023/09/22 06:21:05;;;;;;;9.70;7.00;;;;;;;23.92;79.12;95683.08;111497;1244;22456;-74
2023/09/22 06:23:36;;;;;;;11.70;6.70;;;;;;;24.07;77.68;95684.79;111485;1244;25403;-74
2023/09/22 06:26:08;;;;;;;9.40;6.00;;;;;;;24.08;76.22;95688.04;111526;1244;22482;-74
2023/09/22 06:28:37;;;;;;;10.70;6.20;;;;;;;24.16;75.41;95691.58;111599;1244;22547;-74
2023/09/22 06:31:06;;;;;;;11.70;6.50;;;;;;;24.16;74.58;95690.96;111619;1244;23340;-74
2023/09/22 06:33:36;;;;;;;9.30;6.10;;;;;;;24.04;73.84;95694.83;111466;1244;22482;-74
2023/09/22 06:36:06;;;;;;;12.00;6.60;;;;;;;23.89;73.57;95705.59;111511;1244;22506;-74
2023/09/22 06:38:34;;;;;;;13.60;6.50;;;;;;;23.93;74.27;95709.14;111556;1244;22508;-74
2023/09/22 06:41:04;;;;;;;11.30;6.20;;;;;;;24.08;74.34;95712.94;111511;1244;22990;-74
2023/09/22 06:43:33;;;;;;;10.10;6.10;;;;;;;24.31;73.67;95706.45;111456;1244;25697;-74
2023/09/22 06:46:04;;;;;;;11.30;6.40;;;;;;;24.41;72.75;95710.86;111494;1244;22936;-74
2023/09/22 06:48:36;;;;;;;12.30;6.10;;;;;;;24.45;72.24;95711.92;111549;1244;22512;-74
2023/09/22 06:51:06;;;;;;;10.60;6.20;;;;;;;24.76;72.32;95711.70;111487;1244;22493;-75
2023/09/22 06:53:36;;;;;;;10.80;6.00;;;;;;;25.09;71.77;95707.60;111479;1244;23247;-74
2023/09/22 06:56:08;;;;;;;6.30;5.30;;;;;;;25.50;72.06;95709.80;111496;1244;25411;-74
2023/09/22 06:58:40;;;;;;;12.20;5.50;;;;;;;25.69;70.31;95713.58;111587;1244;22577;-74
2023/09/22 07:01:10;;;;;;;11.30;5.10;;;;;;;25.70;68.85;95717.05;111485;1244;22676;-74
2023/09/22 07:03:39;;;;;;;10.30;5.20;;;;;;;25.57;67.81;95717.97;111557;1234;23851;-74
2023/09/22 07:06:10;;;;;;;7.70;4.80;;;;;;;25.39;67.16;95721.48;111456;1244;24817;-74
2023/09/22 07:08:39;;;;;;;8.40;5.30;;;;;;;25.31;67.08;95722.98;111555;1244;25574;-74
2023/09/22 07:11:09;;;;;;;7.40;4.50;;;;;;;25.37;67.66;95725.46;111511;1244;22675;-74
2023/09/22 07:13:40;;;;;;;8.50;4.90;;;;;;;25.41;66.68;95733.41;111548;1244;22509;-74
2023/09/22 07:16:10;;;;;;;9.00;5.20;;;;;;;25.36;66.35;95739.04;111476;1244;22482;-74
2023/09/22 07:18:39;;;;;;;6.30;4.10;;;;;;;25.28;65.59;95745.19;111553;1244;23848;-75
2023/09/22 07:21:09;;;;;;;7.20;4.00;;;;;;;25.15;65.40;95747.09;111477;1244;23720;-74
2023/09/22 07:23:38;;;;;;;9.20;4.00;;;;;;;24.85;64.10;95746.46;111485;1244;25371;-74
2023/09/22 07:26:09;;;;;;;8.80;3.60;;;;;;;24.74;64.74;95746.11;111484;1244;22518;-74
2023/09/22 07:28:40;;;;;;;6.50;4.30;;;;;;;24.95;64.88;95746.21;111564;1244;22514;-74
2023/09/22 07:31:12;;;;;;;6.70;4.00;;;;;;;25.08;65.09;95743.25;111546;1244;24166;-74
2023/09/22 07:33:42;;;;;;;8.80;3.60;;;;;;;25.29;64.16;95738.59;111467;1244;22825;-74
2023/09/22 07:36:12;;;;;;;9.60;3.70;;;;;;;25.28;63.49;95739.77;111456;1244;23982;-74
2023/09/22 07:38:48;;;;;;;7.80;3.70;;;;;;;25.41;63.40;95739.38;111254;1244;309504;-75
2023/09/22 07:41:17;;;;;;;5.90;3.80;;;;;;;25.25;61.93;95736.98;111490;1244;25221;-74
2023/09/22 07:43:46;;;;;;;6.80;3.70;;;;;;;25.08;62.77;95734.34;111463;1244;26059;-74
2023/09/22 07:46:14;;;;;;;6.10;3.70;;;;;;;25.34;63.07;95739.66;111471;1244;25404;-75
2023/09/22 07:48:45;;;;;;;10.90;4.40;;;;;;;25.61;62.65;95741.23;111467;1244;22498;-74
2023/09/22 07:51:13;;;;;;;5.40;3.30;;;;;;;25.60;61.30;95747.67;111486;1244;22668;-74
2023/09/22 07:53:44;;;;;;;7.20;3.60;;;;;;;25.40;61.74;95746.45;111473;1244;23010;-74
2023/09/22 07:56:16;;;;;;;8.10;3.40;;;;;;;25.65;62.72;95742.53;111478;1244;22499;-75
2023/09/22 07:58:45;;;;;;;6.40;3.30;;;;;;;25.82;61.52;95744.38;111512;1244;25450;-74
2023/09/22 08:01:15;;;;;;;;;;;;;;;25.87;61.63;95749.92;111762;1244;22476;-74
2023/09/22 08:03:43;;;;;;;7.50;3.40;;;;;;;25.88;60.79;95747.36;111501;1244;22538;-74
2023/09/22 08:06:12;;;;;;;7.80;3.60;;;;;;;25.83;60.73;95743.20;111484;1244;23706;-74
2023/09/22 08:08:49;;;;;;;5.90;2.90;;;;;;;25.81;60.72;95745.39;111491;1244;22530;-74
2023/09/22 08:11:20;;;;;;;4.60;2.70;;;;;;;25.89;60.21;95742.61;111715;1244;25430;-74
2023/09/22 08:13:49;;;;;;;5.80;2.90;;;;;;;26.05;60.23;95746.25;111417;1244;22500;-75
2023/09/22 08:16:20;;;;;;;5.80;2.90;;;;;;;26.06;59.49;95745.61;111498;1244;22498;-74
2023/09/22 08:18:49;;;;;;;5.50;3.00;;;;;;;26.09;59.66;95738.07;111474;1244;22529;-75
2023/09/22 08:21:20;;;;;;;6.20;3.10;;;;;;;26.20;59.90;95735.80;111455;1244;22510;-74
2023/09/22 08:23:49;;;;;;;5.30;3.00;;;;;;;26.40;60.47;95740.08;111493;1244;25409;-74
2023/09/22 08:26:20;;;;;;;4.60;2.90;;;;;;;26.57;59.33;95742.58;111449;1244;22546;-74
2023/09/22 08:28:50;;;;;;;5.20;2.90;;;;;;;26.65;58.99;95746.38;111464;1244;22617;-75
2023/09/22 08:31:20;;;;;;;6.30;2.90;;;;;;;26.62;57.58;95741.20;111483;1244;22591;-75
2023/09/22 08:33:48;;;;;;;3.80;2.80;;;;;;;26.65;58.25;95735.02;111461;1244;25474;-74
2023/09/22 08:36:19;;;;;;;6.30;2.60;;;;;;;26.77;57.58;95742.37;111481;1244;23850;-74
2023/09/22 08:38:48;;;;;;;5.50;3.10;;;;;;;26.73;57.11;95740.31;111503;1244;23951;-74
2023/09/22 08:41:18;;;;;;;6.10;2.70;;;;;;;26.80;57.19;95738.45;111459;1244;25333;-74
2023/09/22 08:43:47;;;;;;;5.90;3.00;;;;;;;26.55;56.54;95739.09;111421;1244;22536;-74
2023/09/22 08:46:17;;;;;;;;;;;;;;;26.52;56.48;95745.95;111513;1244;22512;-74
2023/09/22 08:48:50;;;;;;;6.40;3.00;;;;;;;26.32;55.99;95742.08;111650;1244;24646;-74
2023/09/22 08:51:18;;;;;;;4.30;2.50;;;;;;;26.29;56.06;95742.63;111649;1244;23777;-74
2023/09/22 08:53:48;;;;;;;5.70;2.80;;;;;;;26.38;56.29;95747.23;111433;1244;22589;-75
2023/09/22 08:56:17;;;;;;;6.40;2.90;;;;;;;26.50;56.18;95743.50;111433;1244;25273;-75
2023/09/22 08:58:47;;;;;;;4.50;2.60;;;;;;;26.44;55.91;95743.84;111659;1244;22507;-75
2023/09/22 09:01:16;;;;;;;7.80;2.80;;;;;;;26.49;56.16;95743.49;111463;1244;22580;-74
2023/09/22 09:03:47;;;;;;;6.90;3.10;;;;;;;26.52;56.23;95745.56;111447;1244;22495;-75
2023/09/22 09:06:19;;;;;;;5.70;2.90;;;;;;;26.56;56.20;95744.98;111476;1244;22611;-75
2023/09/22 09:09:12;;;;;;;6.00;3.00;;;;;;;26.44;55.91;95737.33;111743;1244;22495;-75
2023/09/22 09:11:58;;;;;;;6.30;3.20;;;;;;;26.17;55.44;95740.94;111528;1244;22678;-75
2023/09/22 09:14:28;;;;;;;5.40;2.50;;;;;;;26.02;55.73;95744.64;111468;1244;24288;-74
2023/09/22 09:16:59;;;;;;;4.80;2.80;;;;;;;25.75;55.60;95749.54;111487;1244;22575;-74
2023/09/22 09:19:27;;;;;;;5.50;3.10;;;;;;;25.42;55.96;95754.19;111461;1244;25385;-75
2023/09/22 09:22:07;;;;;;;6.90;3.20;;;;;;;25.09;56.09;95753.48;111451;1244;22504;-74
2023/09/22 09:24:36;;;;;;;5.00;2.50;;;;;;;24.78;56.47;95755.69;111416;1244;26410;-74
2023/09/22 09:27:17;;;;;;;6.70;2.80;;;;;;;24.71;56.84;95757.02;111399;1244;22514;-75
2023/09/22 09:29:47;;;;;;;5.40;2.90;;;;;;;24.54;57.57;95761.24;111497;1244;22763;-75
2023/09/22 09:32:26;;;;;;;5.70;3.00;;;;;;;24.58;58.33;95762.70;111255;1244;25537;-75
2023/09/22 09:34:56;;;;;;;5.30;2.80;;;;;;;24.90;58.95;95757.38;111488;1244;24521;-75
2023/09/22 09:37:28;;;;;;;6.40;2.40;;;;;;;25.14;58.91;95748.89;111467;1244;22506;-75
2023/09/22 09:39:58;;;;;;;7.00;2.60;;;;;;;25.38;58.86;95741.34;111468;1244;22511;-76
2023/09/22 09:42:27;;;;;;;4.30;2.40;;;;;;;25.42;58.19;95734.57;111455;1244;22614;-74
2023/09/22 09:44:57;;;;;;;4.30;2.70;;;;;;;25.52;58.48;95737.94;111436;1244;26520;-74
2023/09/22 09:47:27;;;;;;;7.40;2.70;;;;;;;25.74;58.69;95738.91;111502;1244;25239;-74
2023/09/22 09:49:57;;;;;;;5.80;2.30;;;;;;;25.91;58.55;95735.55;111474;1244;22499;-74
2023/09/22 09:52:33;;;;;;;6.90;2.60;;;;;;;25.97;58.05;95734.19;111468;1244;22503;-74
2023/09/22 09:55:16;;;;;;;4.60;2.10;;;;;;;25.77;57.23;95732.85;111445;1244;22501;-74
2023/09/22 09:57:46;;;;;;;5.40;1.80;;;;;;;25.65;57.26;95729.73;111474;1244;22507;-74
2023/09/22 10:00:19;;;;;;;4.70;1.80;;;;;;;25.61;57.28;95726.25;111455;1244;24888;-74
2023/09/22 10:02:49;;;;;;;3.50;1.60;;;;;;;25.43;55.82;95725.97;111487;1244;22500;-74
2023/09/22 10:05:19;;;;;;;3.80;2.30;;;;;;;25.33;56.48;95727.94;111436;1244;25343;-75
2023/09/22 10:07:50;;;;;;;3.60;2.00;;;;;;;25.19;55.74;95728.71;111586;1244;23714;-75
2023/09/22 10:10:20;;;;;;;3.30;1.90;;;;;;;24.94;55.93;95727.55;111449;1244;22504;-74
2023/09/22 10:12:49;;;;;;;5.70;2.10;;;;;;;24.89;56.34;95728.80;111552;1244;23553;-74
2023/09/22 10:15:38;;;;;;;5.80;1.70;;;;;;;25.02;57.14;95729.08;111438;1244;24256;-74
2023/09/22 10:18:06;;;;;;;5.40;1.80;;;;;;;25.24;57.16;95724.83;111428;1244;22898;-75
2023/09/22 10:20:47;;;;;;;4.10;1.90;;;;;;;25.41;57.18;95733.17;111461;1244;22588;-74
2023/09/22 10:23:23;;;;;;;5.70;1.90;;;;;;;25.35;56.74;95730.04;111456;1244;22498;-74
2023/09/22 10:26:18;;;;;;;6.00;1.70;;;;;;;25.32;57.28;95737.24;111454;1244;24310;-75
2023/09/22 10:28:47;;;;;;;7.00;1.90;;;;;;;25.20;56.33;95734.75;111479;1244;22547;-75
2023/09/22 10:31:17;;;;;;;;;;;;;;;24.98;56.84;95746.14;111499;1244;22532;-74
2023/09/22 10:33:47;;;;;;;4.00;1.60;;;;;;;24.97;57.30;95743.27;111381;1244;22856;-74
2023/09/22 10:36:47;;;;;;;4.00;1.50;;;;;;;25.02;57.00;95743.56;111477;1242;22512;-74
2023/09/22 10:39:16;;;;;;;3.90;1.70;;;;;;;25.05;56.64;95734.58;111420;1244;25218;-75
2023/09/22 10:42:00;;;;;;;3.30;1.50;;;;;;;24.98;56.73;95734.73;111466;1244;22533;-75
2023/09/22 10:44:29;;;;;;;4.00;1.70;;;;;;;24.96;56.10;95741.88;111439;1244;22512;-75
2023/09/22 10:46:57;;;;;;;7.30;1.80;;;;;;;24.91;56.74;95750.31;111439;1244;22615;-74
2023/09/22 10:49:29;;;;;;;5.10;1.90;;;;;;;25.02;56.86;95752.78;111453;1244;22529;-75
2023/09/22 10:51:57;;;;;;;4.20;1.80;;;;;;;25.18;57.07;95761.89;111430;1244;22501;-75
2023/09/22 10:54:26;;;;;;;4.40;1.80;;;;;;;25.26;56.46;95755.51;111444;1244;22611;-74
2023/09/22 10:56:54;;;;;;;5.50;2.00;;;;;;;25.25;56.63;95754.73;111470;1244;26571;-74
2023/09/22 10:59:35;;;;;;;5.40;2.00;;;;;;;25.30;56.68;95750.84;111456;1244;22525;-75
2023/09/22 11:02:03;;;;;;;6.60;2.10;;;;;;;25.25;55.78;95748.83;111477;1244;22519;-74
2023/09/22 11:04:41;;;;;;;3.90;1.60;;;;;;;25.19;55.81;95750.80;111434;1244;25362;-75
2023/09/22 11:07:11;;;;;;;4.10;1.80;;;;;;;25.19;56.12;95748.55;111424;1244;24210;-74
2023/09/22 11:09:41;;;;;;;5.30;2.20;;;;;;;25.18;55.68;95749.26;111451;1230;22577;-74
2023/09/22 11:12:12;;;;;;;6.50;1.70;;;;;;;25.16;56.19;95745.23;111416;1244;26609;-74
2023/09/22 11:14:42;;;;;;;5.40;1.80;;;;;;;25.19;55.92;95744.67;111374;1244;22503;-73
2023/09/22 11:17:21;;;;;;;2.90;1.70;;;;;;;25.20;56.45;95742.90;111423;1244;23711;-74
2023/09/22 11:19:54;;;;;;;4.80;1.80;;;;;;;25.32;56.67;95741.91;111424;1244;22580;-74
2023/09/22 11:22:25;;;;;;;5.90;2.40;;;;;;;25.41;56.61;95743.10;111445;1244;22498;-74
2023/09/22 11:24:54;;;;;;;4.50;1.70;;;;;;;25.48;56.78;95747.73;111375;1244;52149;-74
2023/09/22 11:27:23;;;;;;;4.20;1.90;;;;;;;25.54;56.60;95751.35;111354;1244;25287;-75
2023/09/22 11:30:13;;;;;;;3.60;1.20;;;;;;;25.54;56.17;95761.04;111458;1244;23509;-75
2023/09/22 11:32:43;;;;;;;3.60;1.50;;;;;;;25.55;55.95;95758.16;111425;1244;23736;-75
2023/09/22 11:35:28;;;;;;;8.40;1.90;;;;;;;25.60;55.78;95760.45;111412;1244;23756;-74
2023/09/22 11:37:57;;;;;;;2.10;1.40;;;;;;;25.54;55.81;95762.42;111476;1244;25392;-75